createdAt,value
2022-10-18T00:04:08.597Z,45.90
2022-10-18T00:09:28.652Z,45.90
2022-10-18T00:14:48.856Z,45.90
2022-10-18T00:20:08.964Z,45.90
2022-10-18T00:25:28.942Z,46.00
2022-10-18T00:36:10.406Z,45.90
2022-10-18T00:41:30.950Z,46.00
2022-10-18T00:46:51.952Z,46.00
2022-10-18T00:52:12.014Z,46.00
2022-10-18T00:57:32.193Z,46.00
2022-10-18T01:02:52.352Z,46.00
2022-10-18T01:08:12.526Z,45.90
2022-10-18T01:13:32.566Z,46.00
2022-10-18T01:18:52.739Z,45.90
2022-10-18T01:24:12.739Z,45.90
2022-10-18T01:29:32.920Z,45.90
2022-10-18T01:34:53.017Z,45.90
2022-10-18T01:40:12.975Z,45.90
2022-10-18T01:45:33.150Z,45.90
2022-10-18T01:50:53.363Z,45.90
2022-10-18T01:56:13.405Z,45.90
2022-10-18T02:01:33.553Z,45.90
2022-10-18T02:06:53.594Z,46.00
2022-10-18T02:12:13.783Z,45.90
2022-10-18T02:17:33.963Z,45.90
2022-10-18T02:22:53.964Z,45.80
2022-10-18T02:28:14.056Z,45.90
2022-10-18T02:33:34.183Z,45.90
2022-10-18T02:38:54.438Z,45.80
2022-10-18T02:44:14.709Z,45.90
2022-10-18T02:49:34.791Z,45.90
2022-10-18T02:54:55.086Z,45.90
2022-10-18T03:00:15.325Z,45.80
2022-10-18T03:05:35.589Z,45.90
2022-10-18T03:10:55.667Z,45.80
2022-10-18T03:16:16.041Z,45.80
2022-10-18T03:21:35.956Z,45.80
2022-10-18T03:26:56.231Z,45.80
2022-10-18T03:32:16.331Z,45.80
2022-10-18T03:37:36.618Z,45.90
2022-10-18T03:42:56.848Z,45.80
2022-10-18T03:48:16.921Z,45.80
2022-10-18T03:53:37.084Z,45.90
2022-10-18T03:58:57.230Z,45.80
2022-10-18T04:04:17.291Z,45.80
2022-10-18T04:09:37.485Z,45.80
2022-10-18T04:14:57.574Z,45.90
2022-10-18T04:20:17.796Z,45.90
2022-10-18T04:25:37.973Z,45.90
2022-10-18T04:30:58.182Z,45.80
2022-10-18T04:36:18.339Z,45.80
2022-10-18T04:41:38.528Z,46.40
2022-10-18T04:46:58.633Z,45.80
2022-10-18T04:52:18.669Z,45.80
2022-10-18T04:57:38.690Z,45.80
2022-10-18T05:02:58.774Z,45.80
2022-10-18T05:08:19.046Z,45.80
2022-10-18T05:13:39.153Z,45.80
2022-10-18T05:18:59.271Z,45.80
2022-10-18T05:24:21.050Z,45.80
2022-10-18T05:29:43.054Z,45.80
2022-10-18T05:35:03.243Z,45.80
2022-10-18T05:40:23.367Z,45.80
2022-10-18T05:45:43.503Z,45.80
2022-10-18T05:51:03.648Z,45.80
2022-10-18T05:56:23.989Z,45.80
2022-10-18T06:01:44.184Z,45.80
2022-10-18T06:07:04.496Z,45.80
2022-10-18T06:12:24.603Z,45.80
2022-10-18T06:17:44.606Z,45.80
2022-10-18T06:23:04.649Z,45.80
2022-10-18T06:28:24.880Z,45.80
2022-10-18T06:33:44.981Z,45.80
2022-10-18T06:39:05.211Z,45.80
2022-10-18T06:44:25.530Z,45.80
2022-10-18T06:49:45.880Z,45.80
2022-10-18T06:55:09.060Z,45.80
2022-10-18T07:00:29.375Z,45.80
2022-10-18T07:05:49.440Z,45.80
2022-10-18T07:11:09.696Z,45.80
2022-10-18T07:16:29.718Z,45.80
2022-10-18T07:21:49.893Z,45.90
2022-10-18T07:27:09.970Z,45.80
2022-10-18T07:32:30.175Z,45.80
2022-10-18T07:37:50.434Z,45.80
2022-10-18T07:43:12.265Z,45.80
2022-10-18T07:48:32.492Z,45.80
2022-10-18T07:53:52.673Z,45.80
2022-10-18T07:59:12.835Z,45.80
2022-10-18T08:04:32.997Z,45.80
2022-10-18T08:09:53.123Z,45.80
2022-10-18T08:15:13.338Z,45.80
2022-10-18T08:20:33.406Z,45.80
2022-10-18T08:25:53.575Z,45.80
2022-10-18T08:31:13.715Z,45.80
2022-10-18T08:36:33.866Z,45.80
2022-10-18T08:41:53.892Z,45.80
2022-10-18T08:47:14.103Z,45.70
2022-10-18T08:52:34.215Z,45.80
2022-10-18T08:57:54.358Z,45.80
2022-10-18T09:03:14.569Z,45.80
2022-10-18T09:08:34.736Z,45.80
2022-10-18T09:13:54.897Z,45.80
2022-10-18T09:19:15.081Z,45.90
2022-10-18T09:24:35.250Z,45.90
2022-10-18T09:29:55.443Z,45.80
2022-10-18T09:35:15.559Z,45.80
2022-10-18T09:40:35.791Z,45.90
2022-10-18T09:45:55.989Z,45.90
2022-10-18T09:51:16.192Z,45.90
2022-10-18T09:56:39.389Z,46.20
2022-10-18T10:02:02.126Z,47.20
2022-10-18T10:07:22.247Z,48.20
2022-10-18T10:12:42.304Z,48.70
2022-10-18T10:18:02.423Z,48.80
2022-10-18T10:23:22.604Z,48.60
2022-10-18T10:28:42.597Z,48.80
2022-10-18T10:34:02.686Z,48.30
2022-10-18T10:39:22.769Z,48.00
2022-10-18T10:44:42.883Z,47.80
2022-10-18T10:50:03.058Z,47.50
2022-10-18T10:55:35.016Z,47.10
2022-10-18T11:00:55.915Z,47.20
2022-10-18T11:06:16.032Z,47.30
2022-10-18T11:11:36.291Z,47.10
2022-10-18T11:16:56.450Z,47.00
2022-10-18T11:22:16.722Z,46.90
2022-10-18T11:27:37.007Z,46.80
2022-10-18T11:32:57.097Z,46.60
2022-10-18T11:38:17.248Z,46.50
2022-10-18T11:44:00.497Z,46.60
2022-10-18T11:49:17.130Z,46.70
2022-10-18T11:54:37.216Z,47.20
2022-10-18T11:59:57.178Z,47.60
2022-10-18T12:05:24.959Z,47.40
2022-10-18T12:11:03.872Z,47.20
2022-10-18T12:16:45.523Z,47.00
2022-10-18T12:22:04.792Z,46.50
2022-10-18T12:27:24.797Z,46.20
2022-10-18T12:33:02.039Z,46.00
2022-10-18T12:38:24.650Z,45.80
2022-10-18T12:43:44.648Z,45.90
2022-10-18T12:49:04.767Z,45.90
2022-10-18T12:54:24.874Z,45.60
2022-10-18T12:59:44.931Z,45.50
2022-10-18T13:05:12.267Z,45.60
2022-10-18T13:10:42.365Z,45.40
2022-10-18T13:16:02.432Z,45.70
2022-10-18T13:21:22.445Z,45.30
2022-10-18T13:26:42.522Z,45.40
2022-10-18T13:32:02.651Z,45.50
2022-10-18T13:37:22.811Z,45.60
2022-10-18T13:42:42.952Z,45.50
2022-10-18T13:48:03.179Z,45.60
2022-10-18T13:53:24.336Z,45.60
2022-10-18T13:58:53.857Z,45.70
2022-10-18T14:04:24.563Z,45.70
2022-10-18T14:09:45.577Z,45.70
2022-10-18T14:15:06.463Z,45.80
2022-10-18T14:20:29.295Z,45.70
2022-10-18T14:25:49.731Z,45.80
2022-10-18T14:31:09.917Z,45.80
2022-10-18T14:36:30.195Z,45.80
2022-10-18T14:41:50.219Z,45.90
2022-10-18T14:47:10.312Z,45.80
2022-10-18T14:52:35.083Z,45.90
2022-10-18T14:57:55.588Z,45.90
2022-10-18T15:03:15.764Z,45.80
2022-10-18T15:08:35.931Z,45.80
2022-10-18T15:13:56.038Z,45.90
2022-10-18T15:19:16.107Z,45.80
2022-10-18T15:24:36.346Z,45.90
2022-10-18T15:29:56.555Z,45.80
2022-10-18T15:35:16.776Z,45.80
2022-10-18T15:40:36.846Z,45.80
2022-10-18T15:46:00.052Z,45.80
2022-10-18T15:51:23.215Z,45.80
2022-10-18T15:56:43.421Z,45.90
2022-10-18T16:02:03.598Z,45.90
2022-10-18T16:07:23.742Z,45.80
2022-10-18T16:12:43.941Z,45.90
2022-10-18T16:18:04.009Z,45.80
2022-10-18T16:23:24.148Z,45.80
2022-10-18T16:28:44.332Z,45.80
2022-10-18T16:34:04.263Z,45.70
2022-10-18T16:39:24.422Z,45.80
2022-10-18T16:44:44.673Z,45.80
2022-10-18T16:50:06.622Z,45.80
2022-10-18T16:55:26.943Z,45.80
2022-10-18T17:00:47.150Z,45.80
2022-10-18T17:06:07.267Z,45.80
2022-10-18T17:11:27.470Z,45.80
2022-10-18T17:16:50.837Z,45.80
2022-10-18T17:22:14.618Z,45.80
2022-10-18T17:27:34.977Z,45.80
2022-10-18T17:32:55.552Z,45.80
2022-10-18T17:38:15.602Z,45.80
2022-10-18T17:43:35.686Z,45.80
2022-10-18T17:48:55.729Z,45.80
2022-10-18T17:54:15.771Z,45.80
2022-10-18T17:59:35.942Z,45.80
2022-10-18T18:04:55.980Z,45.80
2022-10-18T18:10:16.185Z,45.90
2022-10-18T18:15:36.162Z,45.90
2022-10-18T18:20:56.249Z,45.90
2022-10-18T18:26:16.317Z,45.80
2022-10-18T18:31:40.023Z,45.90
2022-10-18T18:37:02.607Z,45.80
2022-10-18T18:42:22.740Z,45.80
2022-10-18T18:47:42.914Z,45.80
2022-10-18T18:53:03.078Z,45.80
2022-10-18T18:58:23.168Z,45.80
2022-10-18T19:03:43.392Z,45.90
2022-10-18T19:09:03.647Z,45.90
2022-10-18T19:14:24.320Z,45.80
2022-10-18T19:19:45.644Z,45.90
2022-10-18T19:25:05.668Z,45.80
2022-10-18T19:30:25.842Z,45.90
2022-10-18T19:35:45.902Z,45.80
2022-10-18T19:41:06.113Z,45.90
2022-10-18T19:46:26.286Z,45.90
2022-10-18T19:51:46.698Z,45.80
2022-10-18T19:57:06.912Z,45.80
2022-10-18T20:02:27.260Z,45.80
2022-10-18T20:07:47.260Z,45.80
2022-10-18T20:13:07.627Z,45.80
2022-10-18T20:18:27.708Z,45.80
2022-10-18T20:23:47.916Z,45.70
2022-10-18T20:29:08.079Z,45.80
2022-10-18T20:34:28.348Z,45.80
2022-10-18T20:39:48.353Z,45.80
2022-10-18T20:45:08.647Z,45.70
2022-10-18T20:50:28.616Z,45.80
2022-10-18T20:55:48.782Z,45.70
2022-10-18T21:01:09.031Z,45.70
2022-10-18T21:06:29.206Z,45.80
2022-10-18T21:11:49.461Z,45.70
2022-10-18T21:17:09.570Z,45.70
2022-10-18T21:22:29.916Z,45.70
2022-10-18T21:27:49.992Z,45.60
2022-10-18T21:33:10.233Z,45.70
2022-10-18T21:38:30.417Z,45.70
2022-10-18T21:43:50.491Z,45.60
2022-10-18T21:49:10.630Z,45.70
2022-10-18T21:54:30.776Z,45.60
2022-10-18T21:59:50.868Z,45.60
2022-10-18T22:05:12.222Z,45.60
2022-10-18T22:10:32.131Z,45.60
2022-10-18T22:15:52.360Z,45.60
2022-10-18T22:21:12.487Z,45.60
2022-10-18T22:26:32.664Z,45.60
2022-10-18T22:31:52.766Z,45.60
2022-10-18T22:37:12.880Z,45.60
2022-10-18T22:47:57.713Z,45.60
2022-10-18T22:53:17.979Z,45.60
2022-10-18T22:58:38.131Z,45.50
2022-10-18T23:03:58.335Z,45.60
2022-10-18T23:09:18.516Z,45.50
2022-10-18T23:14:38.724Z,45.60
2022-10-18T23:19:58.908Z,45.60
2022-10-18T23:25:19.120Z,45.60
2022-10-18T23:30:39.262Z,45.60
2022-10-18T23:35:59.388Z,45.60
2022-10-18T23:41:19.482Z,45.60
2022-10-18T23:46:39.861Z,45.60
2022-10-18T23:51:59.865Z,45.60
2022-10-18T23:57:19.892Z,45.60
